Terminal Aerodrome Forecast
Issued by NWS Shreveport, LA

Home | Current Version | Previous Version | Text Only | Print | Product List | Glossary On
Versions: 1 2 3 4 5 6 7 8 9 10 11 12 13 14
000
FTUS44 KSHV 291700 RRA
TAFMLU
TAF
KMLU 291748Z 2918/3018 17007KT P6SM SCT040 SCT100 SCT250
     FM300000 17005KT P6SM VCTS SCT050CB SCT130 BKN250
     FM300400 16003KT P6SM SCT045 BKN120 BKN250
     FM300900 VRB03KT P6SM VCSH SCT025 BKN035
     FM301100 VRB03KT 4SM SHRA BR SCT007 OVC012=

USA.gov is the U.S. government's official web portal to all federal, state and local government web resources and services.